createdAt,value
2018-12-31T00:01:50.455Z,8.50
2018-12-31T00:04:19.590Z,7.67
2018-12-31T00:06:48.755Z,9.97
2018-12-31T00:09:17.871Z,7.47
2018-12-31T00:11:47.005Z,7.70
2018-12-31T00:14:16.370Z,12.90
2018-12-31T00:16:45.517Z,14.17
2018-12-31T00:19:14.730Z,6.33
2018-12-31T00:21:44.023Z,9.77
2018-12-31T00:24:13.173Z,7.87
2018-12-31T00:26:42.304Z,12.70
2018-12-31T00:29:11.437Z,9.87
2018-12-31T00:31:41.038Z,6.40
2018-12-31T00:34:10.257Z,8.00
2018-12-31T00:36:39.402Z,10.90
2018-12-31T00:39:08.643Z,9.57
2018-12-31T00:41:37.802Z,6.57
2018-12-31T00:44:06.944Z,10.20
2018-12-31T00:46:36.122Z,8.80
2018-12-31T00:49:05.310Z,7.67
2018-12-31T00:51:34.437Z,9.73
2018-12-31T00:54:03.665Z,11.33
2018-12-31T00:56:32.871Z,8.37
2018-12-31T00:59:02.003Z,9.23
2018-12-31T01:01:31.271Z,6.13
2018-12-31T01:04:00.441Z,6.93
2018-12-31T01:06:29.725Z,12.17
2018-12-31T01:08:58.914Z,7.57
2018-12-31T01:11:28.073Z,8.83
2018-12-31T01:13:57.250Z,7.50
2018-12-31T01:16:26.449Z,8.17
2018-12-31T01:18:55.601Z,8.53
2018-12-31T01:21:24.757Z,5.90
2018-12-31T01:23:53.903Z,9.33
2018-12-31T01:26:23.139Z,13.40
2018-12-31T01:28:52.334Z,5.13
2018-12-31T01:31:21.567Z,11.67
2018-12-31T01:33:52.564Z,8.40
2018-12-31T01:36:21.750Z,8.30
2018-12-31T01:38:50.926Z,10.83
2018-12-31T01:41:20.102Z,11.27
2018-12-31T01:43:49.262Z,9.97
2018-12-31T01:46:18.502Z,9.27
2018-12-31T01:48:47.645Z,10.70
2018-12-31T01:51:16.806Z,15.43
2018-12-31T01:53:45.951Z,10.23
2018-12-31T01:56:15.114Z,12.97
2018-12-31T01:58:44.270Z,10.60
2018-12-31T02:01:13.486Z,8.60
2018-12-31T02:03:42.650Z,7.03
2018-12-31T02:06:13.073Z,12.43
2018-12-31T02:08:42.209Z,6.40
2018-12-31T02:11:11.249Z,10.13
2018-12-31T02:13:40.384Z,14.30
2018-12-31T02:16:09.446Z,9.30
2018-12-31T02:18:38.528Z,9.57
2018-12-31T02:21:07.637Z,7.93
2018-12-31T02:23:36.664Z,9.17
2018-12-31T02:26:05.736Z,8.90
2018-12-31T02:28:34.772Z,9.33
2018-12-31T02:31:03.891Z,7.47
2018-12-31T02:33:32.917Z,8.37
2018-12-31T02:36:01.978Z,7.87
2018-12-31T02:38:31.322Z,11.67
2018-12-31T02:41:00.421Z,8.60
2018-12-31T02:43:29.470Z,9.47
2018-12-31T02:45:58.552Z,9.07
2018-12-31T02:48:27.898Z,11.83
2018-12-31T02:50:57.251Z,6.20
2018-12-31T02:53:26.627Z,8.33
2018-12-31T02:55:56.072Z,10.47
2018-12-31T02:58:25.110Z,12.63
2018-12-31T03:00:54.154Z,10.13
2018-12-31T03:03:23.213Z,7.80
2018-12-31T03:05:52.562Z,9.70
2018-12-31T03:08:21.970Z,8.60
2018-12-31T03:10:51.404Z,8.17
2018-12-31T03:13:20.457Z,11.47
2018-12-31T03:15:49.525Z,10.20
2018-12-31T03:18:18.584Z,12.30
2018-12-31T03:20:47.636Z,9.10
2018-12-31T03:23:16.664Z,10.77
2018-12-31T03:25:45.716Z,9.03
2018-12-31T03:28:14.736Z,15.40
2018-12-31T03:30:44.186Z,11.63
2018-12-31T03:33:13.284Z,14.27
2018-12-31T03:35:42.348Z,10.20
2018-12-31T03:38:11.640Z,9.13
2018-12-31T03:40:40.678Z,14.03
2018-12-31T03:43:09.708Z,12.63
2018-12-31T03:45:38.754Z,11.60
2018-12-31T03:48:07.823Z,6.90
2018-12-31T03:50:36.857Z,13.23
2018-12-31T03:53:05.920Z,14.33
2018-12-31T03:55:34.961Z,9.17
2018-12-31T03:58:04.366Z,10.67
2018-12-31T04:00:33.401Z,11.00
2018-12-31T04:03:02.425Z,12.67
2018-12-31T04:05:31.797Z,10.40
2018-12-31T04:08:00.833Z,13.53
2018-12-31T04:10:29.865Z,16.33
2018-12-31T04:12:58.943Z,16.07
2018-12-31T04:15:28.069Z,11.43
2018-12-31T04:17:57.101Z,10.87
2018-12-31T04:20:26.140Z,9.67
2018-12-31T04:22:55.192Z,13.20
2018-12-31T04:25:24.252Z,11.97
2018-12-31T04:27:53.310Z,14.47
2018-12-31T04:30:22.360Z,17.83
2018-12-31T04:32:51.431Z,12.33
2018-12-31T04:35:20.479Z,14.53
2018-12-31T04:37:49.839Z,11.50
2018-12-31T04:40:19.161Z,10.97
2018-12-31T04:42:48.468Z,9.73
2018-12-31T04:45:17.592Z,11.50
2018-12-31T04:47:46.654Z,10.37
2018-12-31T04:50:15.703Z,13.67
2018-12-31T04:52:45.930Z,11.20
2018-12-31T04:55:14.998Z,16.07
2018-12-31T04:57:44.064Z,11.57
2018-12-31T05:00:13.104Z,9.60
2018-12-31T05:02:42.158Z,8.27
2018-12-31T05:05:11.268Z,7.73
2018-12-31T05:07:40.325Z,7.60
2018-12-31T05:10:09.380Z,10.50
2018-12-31T05:12:38.428Z,8.67
2018-12-31T05:15:07.528Z,12.87
2018-12-31T05:17:36.576Z,9.17
2018-12-31T05:20:05.826Z,11.67
2018-12-31T05:22:34.923Z,10.20
2018-12-31T05:25:04.033Z,10.10
2018-12-31T05:27:33.076Z,16.70
2018-12-31T05:30:02.133Z,9.77
2018-12-31T05:32:31.105Z,12.03
2018-12-31T05:35:00.302Z,10.40
2018-12-31T05:37:29.700Z,10.87
2018-12-31T05:39:58.749Z,11.50
2018-12-31T05:42:27.793Z,11.13
2018-12-31T05:44:56.829Z,11.80
2018-12-31T05:47:25.794Z,13.10
2018-12-31T05:49:55.107Z,10.20
2018-12-31T05:52:24.233Z,11.67
2018-12-31T05:54:53.276Z,12.23
2018-12-31T05:57:22.353Z,18.97
2018-12-31T05:59:51.641Z,11.67
2018-12-31T06:02:20.675Z,8.87
2018-12-31T06:04:49.697Z,13.20
2018-12-31T06:07:18.745Z,10.47
2018-12-31T06:09:47.803Z,9.53
2018-12-31T06:12:16.865Z,11.77
2018-12-31T06:14:45.813Z,12.33
2018-12-31T06:17:14.870Z,12.40
2018-12-31T06:19:44.250Z,10.90
2018-12-31T06:22:13.285Z,10.20
2018-12-31T06:24:42.370Z,10.90
2018-12-31T06:27:11.440Z,11.57
2018-12-31T06:29:40.526Z,10.70
2018-12-31T06:32:09.571Z,10.93
2018-12-31T06:34:38.604Z,13.73
2018-12-31T06:37:08.770Z,12.17
2018-12-31T06:39:37.797Z,10.47
2018-12-31T06:42:06.836Z,10.33
2018-12-31T06:44:35.964Z,13.73
2018-12-31T06:47:05.085Z,12.50
2018-12-31T06:49:34.186Z,13.70
2018-12-31T06:52:03.186Z,13.10
2018-12-31T06:54:32.145Z,15.27
2018-12-31T06:57:01.176Z,14.93
2018-12-31T06:59:30.586Z,13.77
2018-12-31T07:01:59.643Z,14.67
2018-12-31T07:04:28.697Z,12.07
2018-12-31T07:06:58.386Z,15.10
2018-12-31T07:09:27.428Z,12.37
2018-12-31T07:11:56.475Z,12.77
2018-12-31T07:14:25.557Z,15.57
2018-12-31T07:16:54.613Z,15.53
2018-12-31T07:19:23.691Z,16.00
2018-12-31T07:21:52.729Z,16.20
2018-12-31T07:24:21.806Z,15.57
2018-12-31T07:26:50.836Z,14.20
2018-12-31T07:29:19.864Z,19.30
2018-12-31T07:31:49.185Z,15.60
2018-12-31T07:34:18.218Z,11.53
2018-12-31T07:36:47.259Z,14.00
2018-12-31T07:39:16.429Z,17.70
2018-12-31T07:41:45.500Z,15.33
2018-12-31T07:44:14.594Z,12.77
2018-12-31T07:46:43.653Z,13.77
2018-12-31T07:49:12.710Z,17.97
2018-12-31T07:51:41.774Z,19.50
2018-12-31T07:54:10.818Z,14.43
2018-12-31T07:56:39.909Z,15.40
2018-12-31T07:59:08.997Z,16.50
2018-12-31T08:01:38.117Z,19.63
2018-12-31T08:04:07.250Z,22.13
2018-12-31T08:06:36.302Z,15.20
2018-12-31T08:09:07.369Z,16.80
2018-12-31T08:11:36.756Z,17.27
2018-12-31T08:14:05.833Z,16.33
2018-12-31T08:16:34.909Z,22.97
2018-12-31T08:19:03.952Z,17.07
2018-12-31T08:21:33.177Z,21.30
2018-12-31T08:24:02.253Z,18.23
2018-12-31T08:26:31.277Z,22.50
2018-12-31T08:29:00.372Z,20.33
2018-12-31T08:31:29.479Z,13.83
2018-12-31T08:33:58.452Z,13.13
2018-12-31T08:36:27.519Z,16.67
2018-12-31T08:38:56.645Z,18.20
2018-12-31T08:41:27.768Z,19.00
2018-12-31T08:43:56.812Z,22.13
2018-12-31T08:46:25.937Z,13.67
2018-12-31T08:48:54.972Z,19.77
2018-12-31T08:51:24.053Z,20.40
2018-12-31T08:53:53.133Z,15.23
2018-12-31T08:56:22.202Z,16.77
2018-12-31T08:58:51.282Z,18.80
2018-12-31T09:01:20.384Z,16.27
2018-12-31T09:03:49.575Z,16.03
2018-12-31T09:06:18.643Z,18.60
2018-12-31T09:08:47.845Z,17.57
2018-12-31T09:11:16.921Z,13.53
2018-12-31T09:13:46.114Z,14.90
2018-12-31T09:16:15.156Z,15.53
2018-12-31T09:18:44.216Z,17.07
2018-12-31T09:21:13.301Z,12.03
2018-12-31T09:23:42.486Z,11.50
2018-12-31T09:26:11.568Z,14.77
2018-12-31T09:28:40.576Z,14.97
2018-12-31T09:31:09.645Z,17.37
2018-12-31T09:33:38.834Z,17.10
2018-12-31T09:36:07.952Z,18.07
2018-12-31T09:38:37.414Z,18.27
2018-12-31T09:41:06.479Z,15.40
2018-12-31T09:43:35.511Z,11.93
2018-12-31T09:46:04.562Z,12.67
2018-12-31T09:48:33.648Z,17.40
2018-12-31T09:51:03.054Z,21.43
2018-12-31T09:53:32.089Z,14.97
2018-12-31T09:56:01.176Z,20.47
2018-12-31T09:58:30.251Z,16.60
2018-12-31T10:00:59.284Z,16.17
2018-12-31T10:03:28.361Z,16.37
2018-12-31T10:05:57.776Z,11.63
2018-12-31T10:08:26.867Z,15.60
2018-12-31T10:10:55.909Z,18.07
2018-12-31T10:13:25.029Z,12.30
2018-12-31T10:15:54.081Z,12.33
2018-12-31T10:18:23.114Z,15.83
2018-12-31T10:20:52.221Z,16.10
2018-12-31T10:23:21.692Z,13.33
2018-12-31T10:25:50.736Z,13.23
2018-12-31T10:28:19.790Z,13.10
2018-12-31T10:30:48.832Z,11.60
2018-12-31T10:33:17.856Z,10.47
2018-12-31T10:35:46.941Z,15.00
2018-12-31T10:38:16.049Z,12.80
2018-12-31T10:40:45.174Z,11.80
2018-12-31T10:43:14.240Z,10.37
2018-12-31T10:45:43.309Z,12.90
2018-12-31T10:48:12.372Z,9.77
2018-12-31T10:50:41.406Z,12.50
2018-12-31T10:53:10.462Z,13.10
2018-12-31T10:55:39.509Z,10.40
2018-12-31T10:58:08.545Z,9.97
2018-12-31T11:00:37.631Z,12.63
2018-12-31T11:03:06.901Z,10.27
2018-12-31T11:05:35.950Z,10.90
2018-12-31T11:08:04.989Z,11.67
2018-12-31T11:10:34.045Z,15.50
2018-12-31T11:13:03.085Z,15.40
2018-12-31T11:15:32.194Z,11.97
2018-12-31T11:18:01.330Z,10.50
2018-12-31T11:20:30.439Z,15.43
2018-12-31T11:22:59.541Z,13.50
2018-12-31T11:25:28.593Z,13.90
2018-12-31T11:27:57.656Z,15.77
2018-12-31T11:30:26.966Z,11.47
2018-12-31T11:32:56.005Z,10.07
2018-12-31T11:35:25.038Z,12.90
2018-12-31T11:37:54.091Z,11.17
2018-12-31T11:40:23.133Z,9.83
2018-12-31T11:42:52.209Z,12.47
2018-12-31T11:45:21.617Z,14.27
2018-12-31T11:47:50.651Z,10.77
2018-12-31T11:50:19.685Z,8.50
2018-12-31T11:52:48.751Z,11.27
2018-12-31T11:55:17.780Z,10.97
2018-12-31T11:57:46.840Z,12.00
2018-12-31T12:00:15.885Z,9.13
2018-12-31T12:02:44.929Z,11.57
2018-12-31T12:05:13.989Z,11.47
2018-12-31T12:07:43.236Z,8.93
2018-12-31T12:10:12.289Z,9.03
2018-12-31T12:12:41.317Z,10.17
2018-12-31T12:15:10.381Z,13.43
2018-12-31T12:17:39.417Z,10.80
2018-12-31T12:20:08.474Z,13.27
2018-12-31T12:22:37.504Z,11.83
2018-12-31T12:25:06.545Z,11.40
2018-12-31T12:27:35.612Z,10.47
2018-12-31T12:30:04.877Z,11.60
2018-12-31T12:32:33.924Z,10.63
2018-12-31T12:35:02.972Z,12.47
2018-12-31T12:37:32.093Z,11.00
2018-12-31T12:40:01.126Z,6.97
2018-12-31T12:42:30.180Z,9.20
2018-12-31T12:44:59.205Z,12.00
2018-12-31T12:47:28.196Z,9.67
2018-12-31T12:49:57.253Z,7.27
2018-12-31T12:52:26.284Z,8.80
2018-12-31T12:55:14.533Z,11.10
2018-12-31T12:57:43.614Z,9.70
2018-12-31T13:00:13.003Z,13.30
2018-12-31T13:02:43.733Z,10.33
2018-12-31T13:05:12.764Z,9.97
2018-12-31T13:07:41.833Z,10.00
2018-12-31T13:10:10.928Z,10.90
2018-12-31T13:12:40.065Z,12.30
2018-12-31T13:15:09.118Z,7.97
2018-12-31T13:17:38.437Z,11.20
2018-12-31T13:20:07.634Z,11.60
2018-12-31T13:22:36.677Z,8.57
2018-12-31T13:25:05.960Z,13.00
2018-12-31T13:27:34.997Z,13.83
2018-12-31T13:30:04.254Z,11.80
2018-12-31T13:32:33.333Z,7.17
2018-12-31T13:35:02.706Z,7.00
2018-12-31T13:37:31.773Z,10.57
2018-12-31T13:40:00.812Z,10.83
2018-12-31T13:42:29.847Z,9.43
2018-12-31T13:44:58.896Z,12.70
2018-12-31T13:47:28.149Z,8.37
2018-12-31T13:49:57.213Z,9.20
2018-12-31T13:52:26.256Z,6.33
2018-12-31T13:54:55.387Z,8.00
2018-12-31T13:57:24.504Z,6.93
2018-12-31T13:59:53.849Z,6.83
2018-12-31T14:02:22.895Z,6.57
2018-12-31T14:04:52.344Z,6.97
2018-12-31T14:07:21.460Z,5.73
2018-12-31T14:09:50.525Z,4.77
2018-12-31T14:12:19.597Z,7.90
2018-12-31T14:14:48.672Z,6.40
2018-12-31T14:17:17.726Z,8.57
2018-12-31T14:19:47.422Z,6.37
2018-12-31T14:22:16.445Z,9.03
2018-12-31T14:24:45.488Z,6.80
2018-12-31T14:27:14.551Z,11.70
2018-12-31T14:29:43.581Z,10.27
2018-12-31T14:32:13.009Z,8.43
2018-12-31T14:34:43.577Z,7.50
2018-12-31T14:37:12.635Z,7.17
2018-12-31T14:39:41.813Z,9.77
2018-12-31T14:42:10.844Z,7.20
2018-12-31T14:44:40.331Z,8.50
2018-12-31T14:47:09.400Z,10.40
2018-12-31T14:49:38.445Z,14.00
2018-12-31T14:52:07.490Z,11.23
2018-12-31T14:54:36.545Z,9.37
2018-12-31T14:57:05.893Z,11.60
2018-12-31T14:59:34.945Z,20.20
2018-12-31T15:02:04.189Z,42.40
2018-12-31T15:04:33.273Z,14.87
2018-12-31T15:07:02.389Z,14.43
2018-12-31T15:09:31.781Z,12.77
2018-12-31T15:12:00.838Z,12.13
2018-12-31T15:14:30.269Z,15.23
2018-12-31T15:16:59.337Z,18.13
2018-12-31T15:19:28.541Z,11.83
2018-12-31T15:21:57.667Z,10.93
2018-12-31T15:24:26.783Z,13.80
2018-12-31T15:26:55.833Z,15.83
2018-12-31T15:29:24.877Z,16.03
2018-12-31T15:31:53.955Z,14.60
2018-12-31T15:34:23.005Z,14.30
2018-12-31T15:36:52.075Z,16.67
2018-12-31T15:39:21.110Z,15.27
2018-12-31T15:41:50.571Z,14.37
2018-12-31T15:44:19.680Z,17.87
2018-12-31T15:46:48.737Z,17.37
2018-12-31T15:49:18.116Z,20.17
2018-12-31T15:51:47.248Z,23.17
2018-12-31T15:54:16.285Z,22.00
2018-12-31T15:56:45.490Z,21.03
2018-12-31T15:59:14.561Z,23.80
2018-12-31T16:01:43.626Z,35.63
2018-12-31T16:04:12.682Z,29.37
2018-12-31T16:06:41.765Z,27.33
2018-12-31T16:09:10.908Z,20.57
2018-12-31T16:11:40.064Z,25.90
2018-12-31T16:14:09.190Z,27.43
2018-12-31T16:16:38.254Z,25.47
2018-12-31T16:19:07.317Z,27.97
2018-12-31T16:21:36.470Z,27.67
2018-12-31T16:24:05.567Z,22.90
2018-12-31T16:26:34.648Z,22.27
2018-12-31T16:29:03.787Z,25.17
2018-12-31T16:31:33.147Z,25.73
2018-12-31T16:34:02.217Z,26.37
2018-12-31T16:36:31.269Z,29.60
2018-12-31T16:39:00.369Z,30.20
2018-12-31T16:41:29.445Z,38.87
2018-12-31T16:43:58.540Z,45.07
2018-12-31T16:46:27.989Z,36.37
2018-12-31T16:48:57.281Z,28.60
2018-12-31T16:51:26.429Z,28.87
2018-12-31T16:53:55.477Z,28.60
2018-12-31T16:56:24.578Z,35.33
2018-12-31T16:58:53.637Z,37.93
2018-12-31T17:01:22.741Z,31.00
2018-12-31T17:03:51.832Z,35.93
2018-12-31T17:06:20.881Z,31.80
2018-12-31T17:08:50.068Z,35.97
2018-12-31T17:11:19.177Z,31.00
2018-12-31T17:13:48.517Z,33.07
2018-12-31T17:16:17.572Z,35.60
2018-12-31T17:18:46.969Z,33.13
2018-12-31T17:21:16.056Z,60.87
2018-12-31T17:23:45.192Z,48.97
2018-12-31T17:26:14.869Z,32.83
2018-12-31T17:28:43.966Z,56.10
2018-12-31T17:31:13.063Z,77.17
2018-12-31T17:33:42.145Z,39.77
2018-12-31T17:36:11.196Z,50.00
2018-12-31T17:38:40.651Z,48.50
2018-12-31T17:41:09.700Z,75.83
2018-12-31T17:43:38.775Z,62.37
2018-12-31T17:46:07.846Z,53.23
2018-12-31T17:48:36.937Z,59.93
2018-12-31T17:51:06.486Z,52.20
2018-12-31T17:53:35.610Z,42.30
2018-12-31T17:56:04.710Z,56.53
2018-12-31T17:58:33.752Z,50.63
2018-12-31T18:01:02.814Z,47.40
2018-12-31T18:03:32.277Z,53.77
2018-12-31T18:06:01.435Z,64.63
2018-12-31T18:08:30.498Z,237.30
2018-12-31T18:10:59.537Z,68.73
2018-12-31T18:13:28.814Z,48.13
2018-12-31T18:15:57.880Z,47.30
2018-12-31T18:18:26.953Z,49.37
2018-12-31T18:20:57.257Z,50.47
2018-12-31T18:23:26.317Z,41.37
2018-12-31T18:25:55.380Z,53.13
2018-12-31T18:28:24.925Z,51.80
2018-12-31T18:30:53.983Z,61.33
2018-12-31T18:33:23.119Z,72.33
2018-12-31T18:35:52.200Z,85.37
2018-12-31T18:38:21.239Z,45.43
2018-12-31T18:40:50.661Z,122.17
2018-12-31T18:43:19.730Z,47.13
2018-12-31T18:45:48.793Z,70.00
2018-12-31T18:48:17.949Z,63.10
2018-12-31T18:50:47.038Z,241.20
2018-12-31T18:53:16.376Z,76.10
2018-12-31T18:55:45.437Z,49.70
2018-12-31T18:58:14.468Z,56.27
2018-12-31T19:00:43.622Z,40.70
2018-12-31T19:03:12.689Z,38.17
2018-12-31T19:05:42.004Z,40.87
2018-12-31T19:08:11.073Z,72.43
2018-12-31T19:10:40.150Z,51.03
2018-12-31T19:13:09.217Z,45.53
2018-12-31T19:15:38.639Z,43.03
2018-12-31T19:18:07.678Z,68.73
2018-12-31T19:20:37.024Z,58.43
2018-12-31T19:23:06.064Z,86.90
2018-12-31T19:25:35.098Z,59.83
2018-12-31T19:28:04.246Z,66.33
2018-12-31T19:30:33.367Z,64.33
2018-12-31T19:33:02.356Z,47.43
2018-12-31T19:35:31.430Z,42.00
2018-12-31T19:38:00.473Z,53.70
2018-12-31T19:40:29.529Z,48.30
2018-12-31T19:42:58.566Z,48.97
2018-12-31T19:45:27.701Z,51.00
2018-12-31T19:47:56.794Z,50.00
2018-12-31T19:50:25.829Z,72.63
2018-12-31T19:52:54.798Z,63.10
2018-12-31T19:55:24.149Z,51.73
2018-12-31T19:57:53.226Z,71.10
2018-12-31T20:00:22.273Z,51.97
2018-12-31T20:02:51.596Z,47.60
2018-12-31T20:05:20.574Z,54.03
2018-12-31T20:07:49.618Z,54.60
2018-12-31T20:10:19.033Z,46.70
2018-12-31T20:12:48.099Z,75.67
2018-12-31T20:15:17.177Z,113.47
2018-12-31T20:17:46.274Z,143.27
2018-12-31T20:20:15.328Z,80.30
2018-12-31T20:22:44.680Z,157.73
2018-12-31T20:25:13.820Z,70.30
2018-12-31T20:27:42.808Z,78.47
2018-12-31T20:30:11.889Z,95.40
2018-12-31T20:32:40.950Z,92.00
2018-12-31T20:35:10.074Z,84.87
2018-12-31T20:37:39.143Z,84.00
2018-12-31T20:40:08.268Z,93.00
2018-12-31T20:42:37.320Z,95.67
2018-12-31T20:45:06.369Z,69.50
2018-12-31T20:47:36.594Z,71.03
2018-12-31T20:50:06.353Z,73.27
2018-12-31T20:52:35.753Z,146.60
2018-12-31T20:55:04.877Z,96.10
2018-12-31T20:57:33.958Z,169.30
2018-12-31T21:00:03.105Z,162.40
2018-12-31T21:02:32.672Z,146.20
2018-12-31T21:05:01.712Z,89.07
2018-12-31T21:07:30.973Z,143.90
2018-12-31T21:10:00.016Z,183.43
2018-12-31T21:12:29.072Z,87.03
2018-12-31T21:14:58.136Z,148.17
2018-12-31T21:17:27.194Z,110.43
2018-12-31T21:19:56.227Z,68.53
2018-12-31T21:22:25.329Z,64.60
2018-12-31T21:24:54.369Z,81.43
2018-12-31T21:27:23.800Z,62.57
2018-12-31T21:29:52.864Z,68.33
2018-12-31T21:32:21.893Z,79.03
2018-12-31T21:34:51.226Z,85.83
2018-12-31T21:37:20.265Z,86.63
2018-12-31T21:39:49.301Z,79.43
2018-12-31T21:42:18.369Z,78.83
2018-12-31T21:44:47.974Z,149.43
2018-12-31T21:47:17.016Z,122.30
2018-12-31T21:49:46.065Z,62.40
2018-12-31T21:52:15.165Z,64.47
2018-12-31T21:54:44.478Z,66.97
2018-12-31T21:57:13.562Z,65.27
2018-12-31T21:59:42.617Z,66.00
2018-12-31T22:02:11.681Z,55.53
2018-12-31T22:04:40.747Z,74.30
2018-12-31T22:07:10.185Z,70.80
2018-12-31T22:09:39.262Z,62.47
2018-12-31T22:12:08.328Z,75.90
2018-12-31T22:14:37.381Z,87.07
2018-12-31T22:17:06.449Z,51.23
2018-12-31T22:19:35.517Z,70.93
2018-12-31T22:22:04.590Z,55.27
2018-12-31T22:24:33.664Z,50.87
2018-12-31T22:27:02.730Z,45.57
2018-12-31T22:29:31.710Z,46.90
2018-12-31T22:32:00.797Z,48.93
2018-12-31T22:34:29.866Z,56.13
2018-12-31T22:36:58.922Z,44.00
2018-12-31T22:39:27.900Z,55.60
2018-12-31T22:41:56.985Z,45.83
2018-12-31T22:44:26.291Z,49.00
2018-12-31T22:46:55.333Z,112.47
2018-12-31T22:49:24.384Z,86.57
2018-12-31T22:51:53.385Z,87.67
2018-12-31T22:54:22.443Z,201.80
2018-12-31T22:56:51.510Z,136.43
2018-12-31T22:59:20.540Z,99.37
2018-12-31T23:01:49.659Z,346.23
2018-12-31T23:04:18.766Z,490.40
2018-12-31T23:06:48.080Z,598.47
2018-12-31T23:09:17.293Z,1194.70
2018-12-31T23:11:46.412Z,947.20
2018-12-31T23:14:15.475Z,938.90
2018-12-31T23:16:47.973Z,1740.57
2018-12-31T23:19:17.452Z,1361.07
2018-12-31T23:21:46.599Z,1682.37
2018-12-31T23:24:15.662Z,1764.40
2018-12-31T23:26:44.962Z,1019.33
2018-12-31T23:29:14.024Z,1285.67
2018-12-31T23:31:44.335Z,907.13
2018-12-31T23:34:12.990Z,924.17
2018-12-31T23:36:42.075Z,815.07
2018-12-31T23:39:11.401Z,1536.50
2018-12-31T23:41:40.461Z,1043.80
2018-12-31T23:44:09.525Z,618.33
2018-12-31T23:46:38.620Z,428.77
2018-12-31T23:49:07.919Z,526.60
2018-12-31T23:51:37.050Z,527.63
2018-12-31T23:54:06.125Z,514.90
2018-12-31T23:56:35.209Z,589.07
2018-12-31T23:59:04.329Z,377.50
